createdAt,value
2023-10-10T00:00:57.228Z,20.18
2023-10-10T00:02:05.852Z,20.17
2023-10-10T00:03:09.962Z,20.16
2023-10-10T00:04:12.582Z,20.15
2023-10-10T00:05:19.570Z,20.16
2023-10-10T00:06:23.636Z,20.14
2023-10-10T00:07:28.790Z,20.15
2023-10-10T00:08:35.461Z,20.15
2023-10-10T00:09:38.338Z,20.14
2023-10-10T00:10:50.464Z,20.13
2023-10-10T00:11:54.781Z,20.12
2023-10-10T00:12:57.143Z,20.12
2023-10-10T00:14:07.109Z,20.12
2023-10-10T00:15:13.728Z,20.11
2023-10-10T00:16:25.063Z,20.12
2023-10-10T00:17:35.693Z,20.11
2023-10-10T00:18:44.566Z,20.10
2023-10-10T00:19:55.428Z,20.11
2023-10-10T00:21:08.772Z,20.10
2023-10-10T00:22:11.056Z,20.09
2023-10-10T00:23:13.937Z,20.09
2023-10-10T00:24:21.867Z,20.08
2023-10-10T00:25:29.735Z,20.09
2023-10-10T00:26:35.700Z,20.10
2023-10-10T00:27:40.922Z,20.08
2023-10-10T00:28:46.428Z,20.08
2023-10-10T00:29:50.093Z,20.08
2023-10-10T00:30:53.818Z,20.08
2023-10-10T00:32:06.734Z,20.05
2023-10-10T00:33:12.212Z,20.04
2023-10-10T00:34:14.783Z,20.06
2023-10-10T00:35:19.316Z,20.06
2023-10-10T00:36:23.118Z,20.04
2023-10-10T00:37:30.635Z,20.05
2023-10-10T00:38:32.739Z,20.04
2023-10-10T00:39:37.701Z,20.04
2023-10-10T00:40:40.428Z,20.02
2023-10-10T00:41:51.895Z,20.02
2023-10-10T00:42:55.428Z,20.01
2023-10-10T00:43:58.474Z,20.01
2023-10-10T00:45:05.435Z,20.01
2023-10-10T00:46:09.178Z,20.00
2023-10-10T00:47:14.463Z,20.00
2023-10-10T00:48:22.341Z,20.01
2023-10-10T00:49:28.240Z,20.00
2023-10-10T00:50:35.627Z,19.99
2023-10-10T00:51:40.260Z,19.99
2023-10-10T00:52:45.033Z,19.98
2023-10-10T00:54:09.771Z,19.99
2023-10-10T00:55:13.461Z,19.98
2023-10-10T00:56:16.576Z,19.97
2023-10-10T00:57:21.144Z,19.98
2023-10-10T00:58:25.685Z,19.96
2023-10-10T00:59:35.994Z,19.97
2023-10-10T01:00:45.799Z,19.95
2023-10-10T01:01:50.319Z,19.96
2023-10-10T01:02:52.602Z,19.94
2023-10-10T01:03:55.710Z,19.94
2023-10-10T01:04:58.023Z,19.94
2023-10-10T01:06:08.135Z,19.93
2023-10-10T01:07:10.599Z,19.91
2023-10-10T01:08:18.246Z,19.90
2023-10-10T01:09:33.615Z,19.89
2023-10-10T01:10:44.086Z,19.89
2023-10-10T01:11:49.632Z,19.88
2023-10-10T01:12:52.534Z,19.87
2023-10-10T01:13:58.070Z,19.87
2023-10-10T01:15:08.209Z,19.86
2023-10-10T01:16:10.502Z,19.85
2023-10-10T01:17:14.252Z,19.85
2023-10-10T01:18:16.729Z,19.84
2023-10-10T01:19:19.487Z,19.84
2023-10-10T01:20:35.270Z,19.84
2023-10-10T01:21:51.543Z,19.83
2023-10-10T01:22:57.939Z,19.83
2023-10-10T01:24:07.254Z,19.81
2023-10-10T01:25:27.785Z,19.82
2023-10-10T01:26:37.594Z,19.80
2023-10-10T01:27:40.900Z,19.79
2023-10-10T01:28:43.753Z,19.79
2023-10-10T01:29:51.584Z,19.78
2023-10-10T01:30:59.929Z,19.78
2023-10-10T01:32:03.914Z,19.77
2023-10-10T01:33:05.961Z,19.75
2023-10-10T01:34:10.705Z,19.75
2023-10-10T01:35:17.893Z,19.74
2023-10-10T01:36:22.075Z,19.73
2023-10-10T01:37:29.996Z,19.73
2023-10-10T01:38:57.680Z,19.72
2023-10-10T01:40:17.355Z,19.72
2023-10-10T01:41:23.364Z,19.71
2023-10-10T01:42:33.434Z,19.72
2023-10-10T01:43:35.379Z,19.70
2023-10-10T01:44:38.405Z,19.71
2023-10-10T01:45:42.860Z,19.70
2023-10-10T01:46:47.252Z,19.69
2023-10-10T01:47:58.777Z,19.68
2023-10-10T01:49:02.808Z,19.69
2023-10-10T01:50:09.278Z,19.61
2023-10-10T01:51:12.179Z,19.60
2023-10-10T01:52:21.836Z,19.59
2023-10-10T01:53:23.842Z,19.59
2023-10-10T01:54:36.250Z,19.58
2023-10-10T01:55:38.297Z,19.62
2023-10-10T01:56:40.213Z,19.64
2023-10-10T01:57:43.325Z,19.63
2023-10-10T01:58:45.413Z,19.65
2023-10-10T01:59:49.916Z,19.68
2023-10-10T02:00:52.898Z,19.70
2023-10-10T02:01:55.871Z,19.70
2023-10-10T02:03:00.285Z,19.70
2023-10-10T02:04:06.967Z,19.70
2023-10-10T02:05:12.996Z,19.69
2023-10-10T02:06:24.481Z,19.68
2023-10-10T02:07:33.562Z,19.68
2023-10-10T02:08:39.641Z,19.68
2023-10-10T02:09:44.842Z,19.67
2023-10-10T02:10:50.930Z,19.67
2023-10-10T02:11:56.181Z,19.67
2023-10-10T02:13:01.324Z,19.68
2023-10-10T02:14:03.867Z,19.67
2023-10-10T02:15:13.055Z,19.66
2023-10-10T02:16:18.778Z,19.67
2023-10-10T02:17:23.867Z,19.67
2023-10-10T02:18:39.320Z,19.66
2023-10-10T02:19:42.516Z,19.66
2023-10-10T02:20:54.136Z,19.65
2023-10-10T02:22:14.022Z,19.66
2023-10-10T02:23:25.545Z,19.65
2023-10-10T02:24:40.009Z,19.65
2023-10-10T02:25:42.328Z,19.65
2023-10-10T02:26:45.249Z,19.65
2023-10-10T02:27:55.881Z,19.64
2023-10-10T02:29:12.762Z,19.64
2023-10-10T02:30:23.352Z,19.63
2023-10-10T02:31:29.330Z,19.62
2023-10-10T02:32:34.627Z,19.63
2023-10-10T02:33:38.929Z,19.63
2023-10-10T02:34:44.704Z,19.63
2023-10-10T02:35:57.786Z,19.63
2023-10-10T02:37:14.526Z,19.62
2023-10-10T02:38:18.250Z,19.61
2023-10-10T02:39:28.928Z,19.61
2023-10-10T02:40:32.458Z,19.61
2023-10-10T02:41:39.974Z,19.62
2023-10-10T02:42:51.459Z,19.61
2023-10-10T02:44:02.962Z,19.61
2023-10-10T02:45:07.282Z,19.62
2023-10-10T02:46:09.436Z,19.60
2023-10-10T02:47:13.498Z,19.61
2023-10-10T02:48:22.122Z,19.59
2023-10-10T02:49:31.131Z,19.60
2023-10-10T02:50:43.278Z,19.59
2023-10-10T02:51:49.390Z,19.59
2023-10-10T02:53:00.820Z,19.59
2023-10-10T02:54:20.742Z,19.60
2023-10-10T02:55:34.264Z,19.59
2023-10-10T02:56:44.526Z,19.58
2023-10-10T02:57:47.543Z,19.58
2023-10-10T02:58:55.389Z,19.57
2023-10-10T03:00:16.965Z,19.58
2023-10-10T03:01:49.309Z,19.58
2023-10-10T03:02:54.314Z,19.57
2023-10-10T03:03:59.759Z,19.57
2023-10-10T03:05:16.842Z,19.57
2023-10-10T03:06:29.299Z,19.56
2023-10-10T03:07:33.448Z,19.57
2023-10-10T03:08:38.591Z,19.57
2023-10-10T03:10:03.155Z,19.57
2023-10-10T03:11:16.086Z,19.55
2023-10-10T03:12:18.858Z,19.55
2023-10-10T03:13:37.320Z,19.55
2023-10-10T03:14:44.507Z,19.54
2023-10-10T03:15:56.568Z,19.54
2023-10-10T03:17:06.687Z,19.54
2023-10-10T03:18:20.862Z,19.54
2023-10-10T03:19:30.116Z,19.54
2023-10-10T03:20:49.272Z,19.54
2023-10-10T03:21:59.766Z,19.52
2023-10-10T03:23:20.444Z,19.52
2023-10-10T03:24:51.119Z,19.50
2023-10-10T03:26:05.478Z,19.50
2023-10-10T03:27:28.890Z,19.49
2023-10-10T03:28:33.787Z,19.48
2023-10-10T03:29:48.157Z,19.46
2023-10-10T03:30:53.075Z,19.47
2023-10-10T03:32:10.491Z,19.45
2023-10-10T03:33:18.374Z,19.46
2023-10-10T03:34:30.811Z,19.46
2023-10-10T03:35:52.758Z,19.46
2023-10-10T03:37:11.289Z,19.44
2023-10-10T03:38:32.008Z,19.45
2023-10-10T03:39:44.557Z,19.44
2023-10-10T03:41:08.546Z,19.44
2023-10-10T03:42:31.234Z,19.43
2023-10-10T03:43:51.927Z,19.43
2023-10-10T03:45:12.834Z,19.43
2023-10-10T03:46:36.741Z,19.42
2023-10-10T03:47:57.172Z,19.40
2023-10-10T03:49:18.745Z,19.41
2023-10-10T03:50:39.162Z,19.40
2023-10-10T03:51:59.796Z,19.39
2023-10-10T03:53:16.694Z,19.38
2023-10-10T03:54:37.424Z,19.39
2023-10-10T03:55:57.755Z,19.38
2023-10-10T03:57:18.284Z,19.39
2023-10-10T03:58:40.039Z,19.37
2023-10-10T04:00:00.813Z,19.37
2023-10-10T04:01:21.527Z,19.36
2023-10-10T04:02:41.914Z,19.36
2023-10-10T04:04:02.280Z,19.35
2023-10-10T04:05:27.680Z,19.34
2023-10-10T04:06:48.781Z,19.34
2023-10-10T04:08:09.306Z,19.34
2023-10-10T04:09:29.638Z,19.33
2023-10-10T04:10:50.044Z,19.31
2023-10-10T04:12:10.414Z,19.30
2023-10-10T04:13:30.717Z,19.29
2023-10-10T04:14:52.274Z,19.28
2023-10-10T04:16:11.809Z,19.27
2023-10-10T04:17:32.668Z,19.27
2023-10-10T04:18:52.994Z,19.26
2023-10-10T04:20:13.732Z,19.26
2023-10-10T04:21:34.517Z,19.25
2023-10-10T04:22:54.940Z,19.26
2023-10-10T04:24:16.197Z,19.24
2023-10-10T04:25:36.692Z,19.24
2023-10-10T04:26:57.125Z,19.24
2023-10-10T04:28:17.518Z,19.24
2023-10-10T04:29:38.248Z,19.24
2023-10-10T04:31:00.224Z,19.23
2023-10-10T04:32:20.950Z,19.22
2023-10-10T04:33:41.379Z,19.21
2023-10-10T04:35:01.959Z,19.18
2023-10-10T04:36:24.806Z,19.16
2023-10-10T04:37:41.547Z,19.14
2023-10-10T04:39:02.259Z,19.13
2023-10-10T04:40:23.701Z,19.13
2023-10-10T04:41:44.124Z,19.11
2023-10-10T04:43:04.502Z,19.08
2023-10-10T04:44:25.345Z,19.07
2023-10-10T04:45:45.940Z,19.08
2023-10-10T04:47:08.975Z,19.06
2023-10-10T04:48:29.302Z,19.05
2023-10-10T04:49:49.621Z,19.04
2023-10-10T04:51:10.071Z,19.03
2023-10-10T04:52:30.601Z,19.02
2023-10-10T04:53:51.164Z,19.00
2023-10-10T04:55:11.636Z,18.99
2023-10-10T04:56:32.299Z,18.99
2023-10-10T04:57:52.718Z,18.99
2023-10-10T04:59:13.316Z,18.99
2023-10-10T05:00:34.046Z,18.98
2023-10-10T05:01:54.699Z,18.97
2023-10-10T05:03:16.735Z,18.97
2023-10-10T05:04:39.720Z,18.96
2023-10-10T05:06:00.238Z,18.94
2023-10-10T05:07:29.182Z,18.93
2023-10-10T05:08:49.709Z,18.91
2023-10-10T05:10:10.095Z,18.91
2023-10-10T05:11:30.620Z,18.89
2023-10-10T05:12:50.921Z,18.87
2023-10-10T05:14:11.362Z,18.87
2023-10-10T05:15:31.921Z,18.85
2023-10-10T05:16:52.338Z,18.85
2023-10-10T05:18:12.858Z,18.85
2023-10-10T05:19:37.079Z,18.84
2023-10-10T05:21:05.974Z,18.81
2023-10-10T05:22:26.709Z,18.78
2023-10-10T05:23:35.659Z,18.82
2023-10-10T05:24:44.391Z,18.80
2023-10-10T05:25:52.111Z,18.80
2023-10-10T05:26:57.703Z,18.80
2023-10-10T05:28:00.770Z,18.79
2023-10-10T05:29:03.038Z,18.79
2023-10-10T05:30:07.345Z,18.78
2023-10-10T05:31:11.197Z,18.78
2023-10-10T05:32:14.241Z,18.78
2023-10-10T05:33:20.821Z,18.78
2023-10-10T05:34:26.305Z,18.79
2023-10-10T05:35:29.417Z,18.78
2023-10-10T05:36:32.988Z,18.78
2023-10-10T05:37:38.080Z,18.77
2023-10-10T05:38:41.315Z,18.76
2023-10-10T05:39:43.412Z,18.77
2023-10-10T05:40:48.604Z,18.76
2023-10-10T05:41:55.514Z,18.77
2023-10-10T05:42:58.520Z,18.77
2023-10-10T05:44:03.485Z,18.76
2023-10-10T05:45:09.785Z,18.76
2023-10-10T05:46:12.883Z,18.77
2023-10-10T05:47:17.565Z,18.76
2023-10-10T05:48:20.973Z,18.76
2023-10-10T05:49:24.595Z,18.75
2023-10-10T05:50:28.375Z,18.76
2023-10-10T05:51:31.036Z,18.74
2023-10-10T05:52:34.407Z,18.73
2023-10-10T05:53:36.359Z,18.74
2023-10-10T05:54:39.365Z,18.74
2023-10-10T05:55:42.254Z,18.73
2023-10-10T05:56:47.549Z,18.73
2023-10-10T05:57:50.559Z,18.75
2023-10-10T05:58:55.203Z,18.75
2023-10-10T05:59:59.654Z,18.76
2023-10-10T06:01:02.027Z,18.79
2023-10-10T06:02:04.949Z,18.79
2023-10-10T06:03:07.082Z,18.80
2023-10-10T06:04:13.010Z,18.80
2023-10-10T06:05:18.485Z,18.80
2023-10-10T06:06:22.638Z,18.80
2023-10-10T06:07:25.133Z,18.79
2023-10-10T06:08:28.298Z,18.79
2023-10-10T06:09:35.251Z,18.81
2023-10-10T06:10:39.215Z,18.83
2023-10-10T06:11:41.117Z,18.86
2023-10-10T06:12:44.246Z,18.87
2023-10-10T06:13:48.040Z,18.89
2023-10-10T06:14:51.104Z,18.88
2023-10-10T06:15:53.008Z,18.86
2023-10-10T06:16:56.002Z,18.89
2023-10-10T06:17:58.906Z,18.89
2023-10-10T06:19:02.562Z,18.91
2023-10-10T06:20:07.513Z,18.91
2023-10-10T06:21:10.989Z,18.94
2023-10-10T06:22:16.424Z,18.98
2023-10-10T06:23:21.950Z,19.02
2023-10-10T06:24:25.080Z,19.06
2023-10-10T06:25:30.307Z,19.13
2023-10-10T06:26:33.380Z,19.13
2023-10-10T06:27:38.016Z,19.16
2023-10-10T06:28:46.872Z,19.19
2023-10-10T06:29:49.983Z,19.20
2023-10-10T06:30:54.091Z,19.20
2023-10-10T06:31:57.882Z,19.21
2023-10-10T06:33:10.337Z,19.21
2023-10-10T06:34:23.557Z,19.21
2023-10-10T06:35:30.604Z,19.19
2023-10-10T06:36:34.036Z,19.19
2023-10-10T06:37:37.110Z,19.18
2023-10-10T06:38:42.517Z,19.18
2023-10-10T06:39:56.170Z,19.16
2023-10-10T06:41:00.384Z,19.15
2023-10-10T06:42:05.215Z,19.13
2023-10-10T06:43:16.495Z,19.11
2023-10-10T06:44:33.468Z,19.12
2023-10-10T06:45:36.330Z,19.11
2023-10-10T06:46:41.438Z,19.11
2023-10-10T06:47:46.100Z,19.11
2023-10-10T06:48:52.189Z,19.10
2023-10-10T06:50:00.120Z,19.11
2023-10-10T06:51:03.265Z,19.11
2023-10-10T06:52:07.008Z,19.10
2023-10-10T06:53:23.581Z,19.10
2023-10-10T06:54:29.104Z,19.11
2023-10-10T06:55:38.447Z,19.11
2023-10-10T06:56:46.559Z,19.10
2023-10-10T06:57:59.012Z,19.11
2023-10-10T06:59:02.734Z,19.12
2023-10-10T07:00:22.302Z,19.13
2023-10-10T07:01:25.879Z,19.13
2023-10-10T07:02:38.981Z,19.13
2023-10-10T07:03:48.263Z,19.13
2023-10-10T07:04:53.982Z,19.14
2023-10-10T07:05:56.998Z,19.16
2023-10-10T07:07:02.117Z,19.16
2023-10-10T07:08:25.994Z,19.18
2023-10-10T07:09:29.204Z,19.19
2023-10-10T07:10:35.069Z,19.20
2023-10-10T07:11:40.459Z,19.21
2023-10-10T07:12:42.588Z,19.22
2023-10-10T07:13:45.880Z,19.24
2023-10-10T07:14:48.613Z,19.20
2023-10-10T07:15:53.791Z,19.18
2023-10-10T07:16:58.054Z,19.21
2023-10-10T07:18:09.874Z,19.22
2023-10-10T07:19:24.914Z,19.24
2023-10-10T07:20:45.412Z,19.33
2023-10-10T07:21:49.077Z,19.40
2023-10-10T07:22:55.217Z,19.46
2023-10-10T07:24:07.262Z,19.52
2023-10-10T07:25:18.733Z,19.58
2023-10-10T07:26:22.395Z,19.64
2023-10-10T07:27:31.355Z,19.71
2023-10-10T07:28:49.165Z,19.79
2023-10-10T07:30:00.387Z,19.88
2023-10-10T07:31:03.792Z,19.97
2023-10-10T07:32:17.588Z,20.03
2023-10-10T07:33:24.443Z,20.11
2023-10-10T07:34:36.192Z,20.18
2023-10-10T07:35:45.557Z,20.22
2023-10-10T07:36:51.766Z,20.29
2023-10-10T07:37:59.813Z,20.33
2023-10-10T07:39:21.534Z,20.39
2023-10-10T07:40:32.369Z,20.44
2023-10-10T07:41:37.241Z,20.44
2023-10-10T07:42:40.308Z,20.45
2023-10-10T07:43:43.348Z,20.49
2023-10-10T07:44:46.328Z,20.50
2023-10-10T07:45:53.157Z,20.52
2023-10-10T07:47:28.602Z,20.54
2023-10-10T07:48:40.499Z,20.58
2023-10-10T07:49:51.292Z,20.63
2023-10-10T07:51:07.377Z,20.66
2023-10-10T07:52:17.749Z,20.68
2023-10-10T07:53:21.270Z,20.68
2023-10-10T07:54:31.196Z,20.70
2023-10-10T07:55:51.895Z,20.71
2023-10-10T07:56:56.327Z,20.67
2023-10-10T07:58:00.837Z,20.66
2023-10-10T07:59:07.018Z,20.65
2023-10-10T08:00:18.521Z,20.66
2023-10-10T08:01:20.782Z,20.68
2023-10-10T08:02:28.761Z,20.69
2023-10-10T08:03:32.880Z,20.79
2023-10-10T08:04:38.831Z,20.82
2023-10-10T08:05:43.737Z,20.83
2023-10-10T08:06:47.088Z,20.83
2023-10-10T08:07:49.434Z,20.83
2023-10-10T08:09:15.704Z,20.84
2023-10-10T08:10:31.030Z,20.84
2023-10-10T08:11:38.194Z,20.84
2023-10-10T08:12:40.784Z,20.85
2023-10-10T08:13:49.935Z,20.87
2023-10-10T08:15:00.268Z,20.92
2023-10-10T08:16:04.501Z,20.92
2023-10-10T08:17:19.712Z,20.92
2023-10-10T08:18:41.725Z,20.92
2023-10-10T08:19:45.004Z,20.92
2023-10-10T08:21:01.999Z,20.92
2023-10-10T08:22:13.785Z,20.92
2023-10-10T08:23:16.267Z,20.92
2023-10-10T08:24:21.339Z,20.92
2023-10-10T08:25:24.878Z,20.93
2023-10-10T08:26:30.484Z,20.94
2023-10-10T08:27:34.504Z,20.94
2023-10-10T08:28:37.473Z,20.97
2023-10-10T08:29:39.792Z,20.97
2023-10-10T08:30:42.772Z,20.98
2023-10-10T08:31:44.910Z,20.98
2023-10-10T08:32:49.831Z,20.97
2023-10-10T08:33:52.492Z,20.98
2023-10-10T08:34:57.791Z,20.98
2023-10-10T08:36:00.298Z,20.98
2023-10-10T08:37:05.225Z,20.98
2023-10-10T08:38:07.588Z,20.99
2023-10-10T08:39:26.311Z,21.00
2023-10-10T08:40:34.987Z,21.02
2023-10-10T08:41:40.212Z,21.02
2023-10-10T08:42:44.392Z,21.01
2023-10-10T08:43:54.432Z,21.01
2023-10-10T08:44:59.012Z,21.01
2023-10-10T08:46:05.384Z,21.00
2023-10-10T08:47:08.825Z,21.00
2023-10-10T08:48:14.910Z,21.00
2023-10-10T08:49:17.586Z,21.02
2023-10-10T08:50:20.694Z,21.00
2023-10-10T08:51:22.744Z,21.00
2023-10-10T08:52:28.630Z,21.00
2023-10-10T08:53:36.540Z,20.99
2023-10-10T08:54:42.163Z,20.99
2023-10-10T08:55:57.530Z,21.00
2023-10-10T08:57:04.334Z,21.00
2023-10-10T08:58:09.455Z,20.99
2023-10-10T08:59:13.277Z,21.00
2023-10-10T09:00:19.052Z,21.00
2023-10-10T09:01:21.431Z,21.00
2023-10-10T09:02:24.506Z,20.99
2023-10-10T09:03:27.770Z,20.99
2023-10-10T09:04:31.807Z,20.99
2023-10-10T09:05:34.135Z,20.98
2023-10-10T09:06:45.604Z,20.98
2023-10-10T09:07:47.590Z,20.98
2023-10-10T09:08:52.088Z,20.99
2023-10-10T09:10:06.115Z,20.98
2023-10-10T09:11:11.075Z,21.00
2023-10-10T09:12:16.527Z,21.01
2023-10-10T09:13:20.051Z,21.02
2023-10-10T09:14:27.517Z,21.03
2023-10-10T09:15:31.659Z,21.04
2023-10-10T09:16:42.554Z,21.04
2023-10-10T09:17:46.925Z,21.07
2023-10-10T09:19:09.756Z,21.08
2023-10-10T09:20:19.371Z,21.09
2023-10-10T09:21:23.065Z,21.10
2023-10-10T09:22:35.518Z,21.12
2023-10-10T09:23:43.794Z,21.12
2023-10-10T09:24:47.090Z,21.14
2023-10-10T09:25:59.042Z,21.15
2023-10-10T09:27:22.792Z,21.17
2023-10-10T09:28:31.829Z,21.17
2023-10-10T09:29:43.378Z,21.20
2023-10-10T09:30:51.662Z,21.21
2023-10-10T09:32:00.877Z,21.20
2023-10-10T09:33:14.724Z,21.23
2023-10-10T09:34:23.811Z,21.23
2023-10-10T09:35:29.669Z,21.23
2023-10-10T09:36:39.291Z,21.24
2023-10-10T09:37:43.362Z,21.25
2023-10-10T09:38:48.311Z,21.25
2023-10-10T09:39:57.063Z,21.25
2023-10-10T09:41:15.724Z,21.26
2023-10-10T09:42:45.258Z,21.25
2023-10-10T09:44:20.672Z,21.26
2023-10-10T09:45:37.174Z,21.27
2023-10-10T09:47:04.301Z,21.28
2023-10-10T09:48:18.346Z,21.28
2023-10-10T09:49:30.835Z,21.27
2023-10-10T09:50:38.737Z,21.28
2023-10-10T09:52:00.111Z,21.30
2023-10-10T09:53:07.398Z,21.29
2023-10-10T09:54:17.246Z,21.30
2023-10-10T09:55:35.090Z,21.32
2023-10-10T09:56:42.237Z,21.32
2023-10-10T09:57:59.518Z,21.33
2023-10-10T09:59:04.299Z,21.33
2023-10-10T10:00:23.753Z,21.33
2023-10-10T10:01:28.459Z,21.34
2023-10-10T10:02:41.705Z,21.35
2023-10-10T10:04:01.163Z,21.37
2023-10-10T10:05:15.054Z,21.39
2023-10-10T10:06:49.197Z,21.39
2023-10-10T10:08:07.500Z,21.40
2023-10-10T10:09:33.478Z,21.40
2023-10-10T10:10:49.774Z,21.43
2023-10-10T10:12:20.853Z,21.44
2023-10-10T10:13:38.539Z,21.45
2023-10-10T10:14:48.887Z,21.46
2023-10-10T10:16:09.672Z,21.47
2023-10-10T10:17:20.124Z,21.49
2023-10-10T10:18:30.599Z,21.49
2023-10-10T10:19:35.866Z,21.51
2023-10-10T10:20:48.917Z,21.51
2023-10-10T10:22:08.001Z,21.52
2023-10-10T10:23:18.157Z,21.52
2023-10-10T10:24:30.623Z,21.53
2023-10-10T10:25:37.357Z,21.53
2023-10-10T10:26:44.685Z,21.54
2023-10-10T10:27:50.608Z,21.54
2023-10-10T10:28:58.627Z,21.55
2023-10-10T10:30:16.210Z,21.57
2023-10-10T10:31:29.420Z,21.57
2023-10-10T10:32:31.770Z,21.58
2023-10-10T10:33:36.570Z,21.60
2023-10-10T10:34:38.857Z,21.60
2023-10-10T10:36:17.862Z,21.60
2023-10-10T10:37:22.300Z,21.64
2023-10-10T10:38:25.586Z,21.63
2023-10-10T10:39:34.625Z,21.57
2023-10-10T10:40:43.811Z,21.53
2023-10-10T10:41:55.059Z,21.50
2023-10-10T10:43:04.930Z,21.52
2023-10-10T10:44:14.966Z,21.53
2023-10-10T10:45:35.001Z,21.54
2023-10-10T10:46:42.051Z,21.50
2023-10-10T10:47:55.278Z,21.48
2023-10-10T10:49:07.488Z,21.46
2023-10-10T10:50:29.140Z,21.48
2023-10-10T10:51:42.564Z,21.48
2023-10-10T10:52:57.520Z,21.49
2023-10-10T10:54:00.267Z,21.51
2023-10-10T10:55:21.364Z,21.51
2023-10-10T10:56:38.965Z,21.50
2023-10-10T10:57:50.327Z,21.51
2023-10-10T10:59:14.118Z,21.52
2023-10-10T11:00:42.233Z,21.52
2023-10-10T11:01:47.098Z,21.62
2023-10-10T11:03:02.017Z,21.58
2023-10-10T11:04:07.576Z,21.57
2023-10-10T11:05:10.896Z,21.57
2023-10-10T11:06:15.783Z,21.58
2023-10-10T11:07:28.828Z,21.58
2023-10-10T11:08:56.506Z,21.60
2023-10-10T11:10:09.214Z,21.60
2023-10-10T11:11:24.697Z,21.60
2023-10-10T11:12:33.578Z,21.62
2023-10-10T11:13:36.027Z,21.64
2023-10-10T11:14:46.171Z,21.64
2023-10-10T11:15:50.418Z,21.66
2023-10-10T11:16:57.556Z,21.68
2023-10-10T11:18:09.319Z,21.69
2023-10-10T11:19:13.840Z,21.70
2023-10-10T11:20:36.658Z,21.71
2023-10-10T11:21:48.462Z,21.70
2023-10-10T11:22:54.658Z,21.71
2023-10-10T11:24:00.034Z,21.71
2023-10-10T11:25:05.956Z,21.72
2023-10-10T11:26:10.226Z,21.72
2023-10-10T11:27:15.677Z,21.72
2023-10-10T11:28:25.979Z,21.73
2023-10-10T11:29:29.052Z,21.73
2023-10-10T11:30:35.322Z,21.74
2023-10-10T11:31:49.050Z,21.74
2023-10-10T11:33:06.318Z,21.74
2023-10-10T11:34:12.548Z,21.73
2023-10-10T11:35:26.766Z,21.75
2023-10-10T11:36:39.054Z,21.76
2023-10-10T11:37:45.404Z,21.77
2023-10-10T11:38:56.834Z,21.77
2023-10-10T11:40:32.649Z,21.76
2023-10-10T11:41:36.806Z,21.76
2023-10-10T11:42:38.808Z,21.77
2023-10-10T11:44:02.909Z,21.77
2023-10-10T11:45:06.852Z,21.77
2023-10-10T11:46:10.421Z,21.77
2023-10-10T11:47:25.833Z,21.80
2023-10-10T11:48:30.622Z,21.81
2023-10-10T11:49:33.538Z,21.82
2023-10-10T11:50:48.506Z,21.81
2023-10-10T11:51:50.502Z,21.84
2023-10-10T11:52:54.784Z,21.84
2023-10-10T11:53:56.761Z,21.85
2023-10-10T11:55:01.453Z,21.85
2023-10-10T11:56:05.967Z,21.86
2023-10-10T11:57:08.888Z,21.87
2023-10-10T11:58:17.634Z,21.88
2023-10-10T11:59:20.719Z,21.88
2023-10-10T12:00:27.840Z,21.87
2023-10-10T12:01:52.719Z,21.88
2023-10-10T12:02:58.715Z,21.89
2023-10-10T12:04:21.651Z,21.88
2023-10-10T12:05:42.846Z,21.88
2023-10-10T12:06:45.765Z,21.89
2023-10-10T12:07:47.673Z,21.89
2023-10-10T12:08:51.994Z,21.89
2023-10-10T12:09:56.537Z,21.89
2023-10-10T12:11:07.543Z,21.89
2023-10-10T12:12:11.006Z,21.90
2023-10-10T12:13:14.062Z,21.91
2023-10-10T12:14:20.389Z,21.93
2023-10-10T12:15:23.592Z,21.93
2023-10-10T12:16:26.307Z,21.93
2023-10-10T12:17:30.522Z,21.93
2023-10-10T12:18:34.679Z,21.92
2023-10-10T12:19:37.729Z,21.93
2023-10-10T12:20:45.148Z,21.94
2023-10-10T12:21:47.033Z,21.94
2023-10-10T12:22:50.045Z,21.94
2023-10-10T12:23:58.022Z,21.95
2023-10-10T12:25:05.789Z,21.95
2023-10-10T12:26:10.163Z,21.97
2023-10-10T12:27:13.294Z,21.98
2023-10-10T12:28:19.093Z,21.98
2023-10-10T12:29:25.681Z,21.94
2023-10-10T12:30:29.510Z,21.93
2023-10-10T12:31:35.197Z,21.92
2023-10-10T12:32:38.661Z,21.93
2023-10-10T12:33:42.242Z,21.92
2023-10-10T12:34:46.894Z,21.91
2023-10-10T12:35:49.319Z,21.91
2023-10-10T12:37:00.232Z,21.92
2023-10-10T12:38:02.565Z,21.92
2023-10-10T12:39:15.815Z,21.92
2023-10-10T12:40:17.857Z,21.91
2023-10-10T12:41:22.703Z,21.90
2023-10-10T12:42:24.741Z,21.90
2023-10-10T12:43:27.650Z,21.90
2023-10-10T12:44:29.485Z,21.90
2023-10-10T12:45:34.202Z,21.90
2023-10-10T12:46:36.361Z,21.91
2023-10-10T12:47:39.409Z,21.91
2023-10-10T12:48:43.055Z,21.92
2023-10-10T12:49:46.947Z,21.94
2023-10-10T12:50:51.494Z,21.93
2023-10-10T12:51:55.107Z,21.94
2023-10-10T12:53:08.475Z,21.94
2023-10-10T12:54:14.170Z,21.95
2023-10-10T12:55:19.743Z,21.95
2023-10-10T12:56:23.239Z,21.96
2023-10-10T12:57:27.047Z,21.94
2023-10-10T12:58:31.286Z,22.00
2023-10-10T12:59:35.416Z,21.95
2023-10-10T13:00:37.636Z,21.94
2023-10-10T13:01:41.435Z,21.95
2023-10-10T13:02:43.584Z,21.95
2023-10-10T13:03:49.420Z,22.00
2023-10-10T13:04:53.572Z,21.98
2023-10-10T13:06:01.251Z,21.97
2023-10-10T13:07:06.213Z,21.97
2023-10-10T13:08:10.365Z,21.98
2023-10-10T13:09:16.066Z,21.99
2023-10-10T13:10:19.433Z,21.98
2023-10-10T13:11:33.659Z,21.97
2023-10-10T13:12:37.953Z,21.98
2023-10-10T13:13:46.643Z,21.99
2023-10-10T13:15:06.084Z,21.98
2023-10-10T13:16:23.787Z,21.98
2023-10-10T13:17:33.119Z,21.99
2023-10-10T13:18:36.627Z,21.99
2023-10-10T13:19:41.168Z,21.98
2023-10-10T13:20:44.407Z,22.10
2023-10-10T13:21:48.596Z,22.13
2023-10-10T13:22:51.815Z,22.15
2023-10-10T13:23:58.683Z,22.15
2023-10-10T13:25:01.404Z,22.14
2023-10-10T13:26:07.419Z,22.15
2023-10-10T13:27:09.413Z,22.15
2023-10-10T13:28:18.403Z,22.16
2023-10-10T13:29:20.925Z,22.10
2023-10-10T13:30:24.028Z,22.16
2023-10-10T13:31:26.073Z,22.16
2023-10-10T13:32:30.315Z,22.19
2023-10-10T13:33:32.758Z,22.20
2023-10-10T13:34:38.256Z,22.22
2023-10-10T13:35:41.740Z,22.20
2023-10-10T13:36:44.892Z,22.13
2023-10-10T13:37:46.967Z,22.11
2023-10-10T13:38:51.847Z,22.10
2023-10-10T13:39:56.750Z,22.10
2023-10-10T13:41:03.474Z,22.10
2023-10-10T13:42:07.801Z,22.10
2023-10-10T13:43:10.871Z,22.09
2023-10-10T13:44:12.913Z,22.09
2023-10-10T13:45:20.705Z,22.09
2023-10-10T13:46:25.080Z,22.08
2023-10-10T13:47:28.911Z,22.09
2023-10-10T13:48:31.840Z,22.09
2023-10-10T13:49:35.442Z,22.10
2023-10-10T13:50:43.267Z,22.10
2023-10-10T13:51:53.053Z,22.09
2023-10-10T13:52:57.793Z,22.10
2023-10-10T13:54:01.421Z,22.12
2023-10-10T13:55:06.106Z,22.13
2023-10-10T13:56:11.721Z,22.12
2023-10-10T13:57:13.807Z,22.11
2023-10-10T13:58:17.913Z,22.12
2023-10-10T13:59:20.401Z,22.13
2023-10-10T14:00:30.228Z,22.13
2023-10-10T14:01:38.214Z,22.13
2023-10-10T14:02:40.984Z,22.11
2023-10-10T14:03:47.780Z,22.12
2023-10-10T14:04:51.815Z,22.12
2023-10-10T14:06:04.961Z,22.12
2023-10-10T14:07:09.174Z,22.10
2023-10-10T14:08:19.176Z,22.10
2023-10-10T14:09:23.729Z,22.10
2023-10-10T14:10:25.699Z,22.11
2023-10-10T14:11:40.027Z,22.10
2023-10-10T14:12:45.458Z,22.11
2023-10-10T14:13:49.410Z,22.09
2023-10-10T14:14:53.215Z,22.10
2023-10-10T14:15:55.958Z,22.10
2023-10-10T14:16:59.600Z,22.10
2023-10-10T14:18:01.736Z,22.10
2023-10-10T14:19:05.941Z,22.09
2023-10-10T14:20:21.000Z,22.09
2023-10-10T14:21:26.754Z,22.14
2023-10-10T14:22:38.017Z,22.16
2023-10-10T14:23:48.528Z,22.17
2023-10-10T14:24:52.163Z,22.23
2023-10-10T14:26:04.669Z,22.26
2023-10-10T14:27:06.901Z,22.19
2023-10-10T14:28:09.939Z,22.18
2023-10-10T14:29:13.434Z,22.18
2023-10-10T14:30:24.704Z,22.17
2023-10-10T14:31:29.105Z,22.17
2023-10-10T14:32:39.483Z,22.17
2023-10-10T14:33:41.994Z,22.18
2023-10-10T14:34:47.094Z,22.19
2023-10-10T14:35:50.412Z,22.19
2023-10-10T14:36:54.997Z,22.19
2023-10-10T14:38:02.699Z,22.20
2023-10-10T14:39:09.552Z,22.20
2023-10-10T14:40:13.183Z,22.20
2023-10-10T14:41:18.719Z,22.19
2023-10-10T14:42:22.295Z,22.20
2023-10-10T14:43:25.878Z,22.19
2023-10-10T14:44:29.770Z,22.18
2023-10-10T14:45:34.077Z,22.19
2023-10-10T14:46:36.207Z,22.18
2023-10-10T14:47:43.848Z,22.18
2023-10-10T14:48:47.863Z,22.18
2023-10-10T14:49:55.207Z,22.17
2023-10-10T14:50:58.499Z,22.18